Airfield :







YOU CAN JOIN US ON...

 
LOGIN :

Register | Disclaimer

   EN    FR    IT 

 









Legend :    VFR   Marginal VFR   IFR   Intensive IFR   Very Intensive IFR
Visi :
Ceiling :
>= 8 km
>= 3000ft
5 to 8 km
1000 to 3000 ft
1500m to 5 km
500 to 1000 ft
800 to 1500m
200 to 500 ft
< 800m
< 200 ft
Symbols :   Thunderstorms  Fog  Heavy snow  Heavy precipitations  Wind > 20 kt






- Airport Elevation : 461 ft
- IATA code : YYT


CYYT - St John's Int

CURRENT METAR :
  • 271016Z 02005KT 12SM -SN BKN009 OVC022 M04/M06 A3017 RMK SF6SC2 PRESRR SLP226

EXPIRED METARs :
  • 271000Z 04005KT 15SM -SN FEW011 BKN020 OVC027 M04/M06 A3015 RMK SF2SC3SC3 SLP221
  • 270951Z 36006KT 15SM -SN BKN011 BKN018 OVC028 M04/M06 A3015 RMK SF5SC1SC2 SLP221
  • 270900Z 01003KT 15SM FEW022 OVC029 M05/M07 A3015 RMK SC1SC7 SLP219
  • 270800Z 01005KT 15SM BKN016 OVC022 M04/M06 A3012 RMK SC6SC2 SLP208

TAF AMD TAF CYYT
Valid from the 27 at 09:00 until the 28 at 06:00 UTC


270911Z 2709/2806 02007KT 6SM -SN SCT007 OVC015
TEMPO 2709/2715 P6SM NSW SCT015 BKN025 OVC050
PROB30 2709/2715 2SM -FZDZ BR BKN006
FM271500 34012KT P6SM BKN015
TEMPO 2718/2724 SCT015
BECMG 2722/2724 06010KT
FM280000 06012KT P6SM FEW007 BKN015
BECMG 2804/2806 12015G30KT RMK NXT FCST BY 271200Z



MET'MAP, your aeronautical weather chart ! - Copyright ORBIFLY December 2007 - Disclaimer

ORBIFLY MET'MAP TEAM :

Programming & Development : Alexandra Zaïnal
Concept & original design : Baudouin d'Aumeries
Assistance for programming : Marc-Olivier Méhu
Technical & hardware support : Manuel Goepfert

Contact : metmap@orbifly.com




SOURCES & CREDITS :

   NOAA